createdAt,value
2023-09-29T00:02:21.409Z,9.63
2023-09-29T00:07:26.228Z,7.55
2023-09-29T00:12:29.661Z,8.70
2023-09-29T00:17:33.401Z,7.65
2023-09-29T00:22:38.874Z,7.95
2023-09-29T00:27:42.376Z,7.88
2023-09-29T00:32:48.163Z,8.05
2023-09-29T00:37:53.576Z,7.93
2023-09-29T00:42:58.862Z,7.05
2023-09-29T00:48:08.626Z,7.28
2023-09-29T00:53:19.181Z,6.47
2023-09-29T00:58:22.977Z,7.53
2023-09-29T01:03:26.482Z,8.68
2023-09-29T01:08:31.773Z,8.13
2023-09-29T01:13:35.271Z,8.57
2023-09-29T01:18:39.554Z,6.63
2023-09-29T01:23:46.156Z,8.52
2023-09-29T01:28:51.516Z,6.47
2023-09-29T01:33:55.798Z,7.18
2023-09-29T01:39:00.789Z,7.57
2023-09-29T01:44:04.533Z,7.10
2023-09-29T01:49:08.738Z,7.72
2023-09-29T01:54:13.748Z,6.22
2023-09-29T01:59:17.222Z,6.22
2023-09-29T02:04:20.637Z,9.02
2023-09-29T02:09:25.420Z,7.40
2023-09-29T02:14:29.473Z,6.40
2023-09-29T02:19:37.353Z,6.78
2023-09-29T02:24:42.115Z,4.70
2023-09-29T02:29:45.617Z,6.47
2023-09-29T02:34:49.351Z,8.10
2023-09-29T02:39:56.067Z,6.75
2023-09-29T02:44:59.852Z,5.30
2023-09-29T02:50:04.220Z,4.75
2023-09-29T02:55:14.063Z,6.38
2023-09-29T03:00:20.425Z,7.38
2023-09-29T03:05:25.314Z,5.87
2023-09-29T03:10:31.143Z,5.97
2023-09-29T03:15:34.719Z,7.00
2023-09-29T03:20:38.229Z,6.95
2023-09-29T03:25:43.269Z,5.05
2023-09-29T03:30:46.684Z,4.80
2023-09-29T03:35:50.201Z,6.10
2023-09-29T03:40:55.252Z,5.72
2023-09-29T03:45:58.664Z,6.07
2023-09-29T03:51:04.012Z,5.20
2023-09-29T03:56:08.874Z,5.53
2023-09-29T04:01:12.403Z,5.53
2023-09-29T04:06:15.949Z,6.32
2023-09-29T04:11:20.829Z,4.85
2023-09-29T04:16:24.270Z,4.13
2023-09-29T04:21:27.680Z,5.13
2023-09-29T04:26:32.461Z,5.10
2023-09-29T04:31:36.087Z,6.07
2023-09-29T04:36:41.605Z,5.35
2023-09-29T04:41:46.425Z,7.35
2023-09-29T04:46:50.423Z,5.93
2023-09-29T04:51:53.986Z,5.68
2023-09-29T04:56:58.986Z,4.10
2023-09-29T05:02:02.466Z,3.92
2023-09-29T05:07:05.922Z,4.57
2023-09-29T05:12:10.800Z,4.88
2023-09-29T05:17:14.205Z,5.43
2023-09-29T05:22:17.807Z,5.22
2023-09-29T05:27:22.607Z,4.05
2023-09-29T05:32:26.555Z,5.10
2023-09-29T05:37:31.281Z,4.57
2023-09-29T05:42:50.831Z,5.75
2023-09-29T05:47:55.898Z,4.50
2023-09-29T05:53:09.869Z,5.35
2023-09-29T05:58:15.628Z,4.10
2023-09-29T06:03:19.073Z,5.22
2023-09-29T06:08:22.547Z,7.90
2023-09-29T06:13:27.286Z,4.28
2023-09-29T06:18:30.748Z,4.75
2023-09-29T06:23:34.228Z,4.03
2023-09-29T06:28:39.665Z,4.03
2023-09-29T06:33:43.416Z,4.95
2023-09-29T06:38:46.925Z,5.45
2023-09-29T06:43:54.422Z,9.00
2023-09-29T06:48:58.115Z,8.32
2023-09-29T06:54:02.010Z,5.22
2023-09-29T06:59:09.382Z,10.20
2023-09-29T07:04:13.397Z,5.82
2023-09-29T07:09:17.087Z,8.23
2023-09-29T07:14:22.016Z,11.80
2023-09-29T07:19:28.260Z,8.80
2023-09-29T07:24:36.075Z,9.50
2023-09-29T07:29:40.927Z,7.88
2023-09-29T07:34:44.376Z,9.60
2023-09-29T07:39:47.816Z,9.85
2023-09-29T07:44:53.537Z,8.20
2023-09-29T07:49:57.060Z,10.07
2023-09-29T07:55:00.462Z,9.88
2023-09-29T08:00:10.182Z,9.07
2023-09-29T08:05:18.250Z,9.40
2023-09-29T08:10:21.679Z,8.63
2023-09-29T08:15:26.923Z,8.32
2023-09-29T08:20:30.437Z,7.65
2023-09-29T08:25:35.158Z,8.98
2023-09-29T08:30:40.223Z,11.23
2023-09-29T08:35:43.958Z,8.88
2023-09-29T08:40:48.895Z,8.88
2023-09-29T08:45:59.838Z,9.73
2023-09-29T09:02:44.354Z,9.52
2023-09-29T09:07:48.240Z,11.52
2023-09-29T09:12:51.683Z,10.93
2023-09-29T09:17:57.649Z,14.70
2023-09-29T09:23:03.703Z,22.15
2023-09-29T09:28:08.510Z,19.00
2023-09-29T09:33:23.513Z,14.13
2023-09-29T09:38:34.238Z,15.80
2023-09-29T09:43:40.036Z,19.58
2023-09-29T09:48:56.314Z,13.63
2023-09-29T09:54:04.249Z,17.00
2023-09-29T09:59:08.890Z,14.40
2023-09-29T10:04:14.821Z,17.63
2023-09-29T10:09:18.394Z,13.73
2023-09-29T10:14:22.644Z,10.77
2023-09-29T10:19:38.642Z,11.25
2023-09-29T10:24:42.299Z,12.45
2023-09-29T10:29:51.120Z,11.00
2023-09-29T10:35:06.989Z,10.27
2023-09-29T10:40:26.789Z,10.63
2023-09-29T10:45:37.781Z,9.55
2023-09-29T10:50:45.272Z,8.10
2023-09-29T11:00:54.739Z,8.73
2023-09-29T11:06:04.821Z,8.82
2023-09-29T11:11:10.799Z,9.20
2023-09-29T11:16:19.064Z,10.18
2023-09-29T11:21:35.929Z,8.80
2023-09-29T11:26:43.094Z,12.70
2023-09-29T11:31:46.829Z,10.27
2023-09-29T11:36:53.136Z,10.70
2023-09-29T11:41:58.569Z,10.50
2023-09-29T11:47:02.108Z,10.75
2023-09-29T11:52:06.959Z,9.05
2023-09-29T11:57:10.412Z,11.23
2023-09-29T12:02:14.877Z,10.60
2023-09-29T12:07:19.625Z,11.98
2023-09-29T12:12:23.342Z,9.80
2023-09-29T12:17:27.599Z,10.65
2023-09-29T12:22:33.021Z,9.57
2023-09-29T12:27:36.537Z,9.15
2023-09-29T12:32:40.489Z,8.52
2023-09-29T12:37:47.402Z,13.07
2023-09-29T12:42:51.580Z,5.90
2023-09-29T12:47:57.410Z,8.02
2023-09-29T12:53:04.384Z,6.55
2023-09-29T12:58:08.974Z,6.10
2023-09-29T13:03:13.048Z,6.40
2023-09-29T13:08:18.203Z,4.60
2023-09-29T13:13:21.948Z,7.68
2023-09-29T13:18:25.455Z,5.68
2023-09-29T13:23:30.340Z,4.35
2023-09-29T13:28:33.866Z,4.15
2023-09-29T13:33:37.532Z,4.50
2023-09-29T13:38:42.384Z,5.55
2023-09-29T13:43:45.868Z,5.30
2023-09-29T13:48:50.082Z,4.55
2023-09-29T13:53:55.131Z,4.65
2023-09-29T13:59:00.424Z,5.85
2023-09-29T14:04:04.037Z,5.13
2023-09-29T14:09:16.393Z,5.22
2023-09-29T14:14:22.280Z,7.38
2023-09-29T14:19:27.039Z,5.85
2023-09-29T14:24:32.543Z,6.25
2023-09-29T14:29:36.259Z,5.78
2023-09-29T14:34:40.218Z,6.40
2023-09-29T14:39:45.036Z,8.02
2023-09-29T14:44:51.157Z,7.07
2023-09-29T14:49:56.081Z,4.63
2023-09-29T14:55:06.990Z,5.40
2023-09-29T15:00:15.066Z,5.85
2023-09-29T15:05:19.264Z,7.57
2023-09-29T15:10:24.510Z,7.18
2023-09-29T15:15:29.256Z,7.07
2023-09-29T15:20:39.510Z,6.38
2023-09-29T15:25:45.390Z,6.93
2023-09-29T15:30:50.052Z,8.40
2023-09-29T15:35:56.932Z,7.25
2023-09-29T15:41:03.883Z,8.00
2023-09-29T15:46:14.038Z,6.07
2023-09-29T15:51:17.510Z,7.85
2023-09-29T15:56:22.362Z,7.85
2023-09-29T16:01:25.889Z,7.28
2023-09-29T16:06:29.479Z,7.25
2023-09-29T16:11:35.596Z,6.90
2023-09-29T16:16:43.552Z,6.50
2023-09-29T16:21:47.064Z,6.65
2023-09-29T16:26:52.860Z,4.88
2023-09-29T16:31:56.458Z,6.03
2023-09-29T16:37:00.026Z,6.57
2023-09-29T16:42:04.942Z,5.88
2023-09-29T16:47:08.468Z,5.43
2023-09-29T16:52:11.984Z,6.05
2023-09-29T16:57:17.088Z,5.60
2023-09-29T17:02:21.263Z,6.50
2023-09-29T17:07:24.759Z,5.05
2023-09-29T17:12:30.123Z,5.90
2023-09-29T17:17:33.745Z,4.13
2023-09-29T17:22:37.273Z,6.07
2023-09-29T17:27:42.121Z,4.93
2023-09-29T17:32:45.660Z,4.95
2023-09-29T17:37:49.062Z,6.30
2023-09-29T17:42:53.897Z,6.22
2023-09-29T17:48:03.210Z,7.65
2023-09-29T17:53:07.112Z,8.70
2023-09-29T17:58:12.024Z,12.10
2023-09-29T18:03:17.340Z,160.80
2023-09-29T18:08:29.403Z,302.55
2023-09-29T18:13:34.354Z,320.52
2023-09-29T18:18:38.395Z,274.48
2023-09-29T18:30:57.816Z,229.48
2023-09-29T18:36:03.487Z,221.20
2023-09-29T18:41:20.094Z,200.70
2023-09-29T18:46:25.438Z,178.10
2023-09-29T18:51:30.592Z,163.20
2023-09-29T18:56:34.554Z,153.10
2023-09-29T19:01:41.807Z,143.55
2023-09-29T19:06:45.325Z,143.52
2023-09-29T19:11:48.833Z,134.30
2023-09-29T19:16:53.701Z,125.85
2023-09-29T19:21:57.215Z,123.53
2023-09-29T19:27:00.800Z,110.88
2023-09-29T19:32:07.660Z,122.50
2023-09-29T19:38:14.775Z,123.13
2023-09-29T19:43:27.907Z,121.72
2023-09-29T19:48:33.209Z,115.80
2023-09-29T19:59:13.936Z,105.72
2023-09-29T20:04:25.241Z,109.97
2023-09-29T20:09:41.258Z,104.60
2023-09-29T20:14:44.768Z,103.93
2023-09-29T20:19:49.626Z,97.13
2023-09-29T20:24:53.069Z,91.55
2023-09-29T20:29:56.541Z,89.57
2023-09-29T20:35:02.214Z,81.80
2023-09-29T20:40:08.938Z,82.53
2023-09-29T20:45:12.785Z,82.83
2023-09-29T20:57:05.887Z,79.07
2023-09-29T21:02:09.388Z,81.25
2023-09-29T21:07:14.222Z,76.78
2023-09-29T21:12:17.742Z,69.60
2023-09-29T21:17:24.010Z,76.50
2023-09-29T21:22:28.765Z,71.70
2023-09-29T21:27:32.206Z,71.72
2023-09-29T21:32:36.326Z,64.47
2023-09-29T21:37:41.241Z,61.67
2023-09-29T21:42:46.899Z,62.25
2023-09-29T21:47:50.800Z,68.50
2023-09-29T21:52:55.608Z,64.05
2023-09-29T21:57:58.991Z,65.80
2023-09-29T22:03:02.551Z,58.80
2023-09-29T22:08:08.585Z,61.08
2023-09-29T22:13:12.055Z,58.28
2023-09-29T22:18:15.549Z,59.58
2023-09-29T22:23:20.729Z,58.75
2023-09-29T22:28:24.331Z,51.72
2023-09-29T22:33:27.875Z,57.50
2023-09-29T22:38:34.067Z,52.85
2023-09-29T22:43:38.047Z,51.10
2023-09-29T22:48:41.748Z,53.03
2023-09-29T22:53:46.520Z,47.20
2023-09-29T22:58:50.170Z,51.22
2023-09-29T23:03:54.459Z,45.22
2023-09-29T23:08:59.534Z,48.25
2023-09-29T23:14:03.026Z,44.97
2023-09-29T23:19:06.617Z,45.03
2023-09-29T23:24:11.968Z,43.63
2023-09-29T23:29:16.053Z,45.33
2023-09-29T23:34:19.845Z,43.50
2023-09-29T23:39:24.649Z,42.22
2023-09-29T23:44:30.950Z,38.20
2023-09-29T23:49:34.653Z,42.25
2023-09-29T23:54:39.551Z,43.58
2023-09-29T23:59:43.509Z,37.42
